Terminal Aerodrome Forecast
Issued by NWS

Home | Current Version | Previous Version | Text Only | Print | Product List | Glossary On
Versions: 1 2 3 4 5 6 7 8 9 10 11 12 13 14 15 16 17 18 19 20
000
FTUS43 KIWX 160800 AAB
TAFSBN
TAF AMD
KSBN 160801Z 1608/1706 02003KT 6SM BR FEW007 BKN040
      TEMPO 1609/1611 3SM BR SCT007 BKN025
     FM161100 35003KT 6SM BR BKN020
     FM161400 31005KT P6SM BKN020
     FM161600 30008KT P6SM BKN035=

USA.gov is the U.S. government's official web portal to all federal, state and local government web resources and services.